Time;durP1;ratioP1;P1;durP2;ratioP2;P2;SDS_P1;SDS_P2;PMS_P1;PMS_P2;Temp;Humidity;BMP_temperature;BMP_pressure;BME280_temperature;BME280_humidity;BME280_pressure;Samples;Min_cycle;Max_cycle;Signal;HPM_P1;HPM_P2
2022/01/30 00:03:10;;;;;;;;;;;;;;;;;;;;;
2022/01/30 00:06:05;;;;;;;10.10;7.20;;;;;;;20.42;30.38;101185.21;101916;1338;73759;-82
2022/01/30 00:09:18;;;;;;;11.20;7.30;;;;;;;20.42;30.42;101194.86;101758;1344;74796;-79
2022/01/30 00:12:44;;;;;;;10.10;7.30;;;;;;;20.42;30.40;101191.85;101092;1352;61343;-80
2022/01/30 00:16:04;;;;;;;10.70;7.10;;;;;;;20.42;30.33;101195.45;101497;1348;61248;-84
2022/01/30 00:19:17;;;;;;;12.60;7.60;;;;;;;20.42;30.38;101192.02;101494;1346;72802;-86
2022/01/30 00:25:26;;;;;;;10.70;7.70;;;;;;;20.41;30.48;101182.77;101034;1349;61410;-84
2022/01/30 00:28:40;;;;;;;9.20;6.20;;;;;;;20.42;30.35;101181.48;101458;1349;61212;-81
2022/01/30 00:31:40;;;;;;;10.40;7.30;;;;;;;20.42;30.38;101175.25;101456;1349;72797;-84
2022/01/30 00:34:28;;;;;;;;;;;;;;;20.41;30.28;101169.55;101250;1351;74889;-84
2022/01/30 00:37:32;;;;;;;12.40;7.30;;;;;;;20.40;30.33;101161.61;101322;1351;61367;-84
2022/01/30 00:40:59;;;;;;;8.90;6.00;;;;;;;20.40;30.25;101161.22;101256;1351;61369;-79
2022/01/30 00:43:46;;;;;;;;;;;;;;;;;;;;;
2022/01/30 00:46:40;;;;;;;10.00;7.00;;;;;;;20.40;30.39;101144.23;101497;1346;75075;-83
2022/01/30 00:49:56;;;;;;;10.50;6.80;;;;;;;20.40;30.28;101131.91;101824;1335;61792;-82
2022/01/30 00:56:21;;;;;;;8.40;6.00;;;;;;;20.39;30.25;101119.25;101992;1334;72815;-85
2022/01/30 00:59:33;;;;;;;9.10;6.40;;;;;;;20.40;30.30;101116.58;101873;1337;73766;-86
2022/01/30 01:02:32;;;;;;;9.60;6.60;;;;;;;20.40;30.19;101110.65;102243;1331;61365;-82
2022/01/30 01:05:28;;;;;;;9.90;6.30;;;;;;;20.40;30.21;101120.13;102505;1330;61715;-83
2022/01/30 01:08:33;;;;;;;8.10;6.10;;;;;;;20.40;30.23;101111.55;101981;1337;72830;-81
2022/01/30 01:25:47;;;;;;;8.80;5.90;;;;;;;20.39;30.13;101074.79;101811;1340;74103;-88
2022/01/30 01:28:43;;;;;;;8.80;5.30;;;;;;;20.39;30.13;101075.85;101566;1346;61295;-82
2022/01/30 01:32:04;;;;;;;8.70;5.90;;;;;;;20.39;30.15;101080.52;101741;1341;61298;-87
2022/01/30 01:34:53;;;;;;;8.30;5.80;;;;;;;20.39;30.14;101068.71;101773;1342;73656;-83
2022/01/30 01:37:52;;;;;;;8.00;5.50;;;;;;;20.39;30.12;101067.98;102065;1334;74730;-81
2022/01/30 01:40:57;;;;;;;7.70;5.80;;;;;;;20.38;30.15;101064.63;101857;1340;61365;-83
2022/01/30 01:43:48;;;;;;;7.90;5.60;;;;;;;20.38;30.16;101055.51;101767;1341;61815;-86
2022/01/30 01:46:39;;;;;;;6.90;5.30;;;;;;;20.38;30.07;101057.28;101687;1343;73862;-83
2022/01/30 01:49:51;;;;;;;7.60;5.50;;;;;;;20.38;30.08;101050.00;101816;1340;73566;-83
2022/01/30 01:52:47;;;;;;;8.20;5.50;;;;;;;20.38;30.04;101043.20;102306;1332;61672;-79
2022/01/30 01:55:46;;;;;;;9.00;5.50;;;;;;;20.38;30.12;101027.67;102583;1329;61342;-85
2022/01/30 01:58:44;;;;;;;7.30;5.30;;;;;;;20.38;30.08;101023.55;102565;1329;74033;-88
2022/01/30 02:01:33;;;;;;;7.60;5.50;;;;;;;20.38;30.08;101011.02;102065;1335;74624;-84
2022/01/30 02:04:19;;;;;;;8.00;5.50;;;;;;;20.38;30.10;101005.83;101826;1340;61240;-80
2022/01/30 02:10:52;;;;;;;8.00;5.40;;;;;;;20.37;30.10;100977.30;101681;1345;73931;-83
2022/01/30 02:23:57;;;;;;;7.50;5.40;;;;;;;20.36;30.05;100972.77;101836;1341;71527;-86
2022/01/30 02:26:52;;;;;;;8.20;4.90;;;;;;;20.36;30.09;100958.08;101847;1340;75734;-87
2022/01/30 02:29:59;;;;;;;7.70;5.40;;;;;;;20.36;30.07;100968.97;101850;1340;61428;-84
2022/01/30 02:33:31;;;;;;;6.90;4.90;;;;;;;20.36;30.08;100960.07;101860;1340;61207;-86
2022/01/30 02:36:04;;;;;;;7.10;5.20;;;;;;;20.36;30.07;100953.25;101782;1340;73382;-82
2022/01/30 02:39:02;;;;;;;7.20;4.90;;;;;;;20.36;30.00;100945.23;101636;1345;75806;-86
2022/01/30 02:42:12;;;;;;;9.20;5.70;;;;;;;20.36;30.01;100928.43;101779;1340;61306;-83
2022/01/30 02:45:12;;;;;;;7.20;5.30;;;;;;;20.35;30.02;100920.61;101819;1340;61290;-84
2022/01/30 02:48:47;;;;;;;8.80;5.30;;;;;;;20.35;29.97;100920.04;101704;1343;70615;-83
2022/01/30 02:51:35;;;;;;;7.80;5.20;;;;;;;20.35;30.03;100926.66;101362;1351;75881;-82
2022/01/30 02:54:52;;;;;;;7.60;5.10;;;;;;;20.35;29.98;100926.66;101418;1346;61392;-86
2022/01/30 02:57:49;;;;;;;7.10;5.00;;;;;;;20.36;29.84;100915.73;101191;1352;61834;-83
2022/01/30 03:01:16;;;;;;;;;;;;;;;;;;;;;
2022/01/30 03:04:03;;;;;;;6.80;4.90;;;;;;;20.35;29.94;100906.27;101387;1352;74883;-81
2022/01/30 03:07:13;;;;;;;7.50;5.00;;;;;;;20.35;29.92;100904.15;101073;1354;61938;-84
2022/01/30 03:10:21;;;;;;;7.40;5.00;;;;;;;20.35;29.85;100901.13;100996;1355;61529;-85
2022/01/30 03:13:31;;;;;;;6.60;4.80;;;;;;;20.35;29.89;100895.73;101012;1355;72980;-86
2022/01/30 03:16:48;;;;;;;;;;;;;;;;;;;;;
2022/01/30 03:20:04;;;;;;;;;;;;;;;;;;;;;
2022/01/30 03:23:07;;;;;;;7.30;5.30;;;;;;;20.35;30.03;100880.06;100373;1359;61364;-77
2022/01/30 03:25:53;;;;;;;;;;;;;;;;;;;;;
2022/01/30 03:29:04;;;;;;;6.90;5.00;;;;;;;20.35;29.88;100877.69;101227;1348;73920;-85
2022/01/30 03:32:21;;;;;;;6.70;4.80;;;;;;;20.36;29.85;100869.98;101570;1348;61665;-83
2022/01/30 03:35:43;;;;;;;6.70;4.80;;;;;;;20.35;29.77;100857.33;101685;1342;61452;-78
2022/01/30 03:38:54;;;;;;;;;;;;;;;;;;;;;
2022/01/30 03:41:48;;;;;;;;;;;;;;;;;;;;;
2022/01/30 03:45:04;;;;;;;6.60;4.70;;;;;;;20.34;29.88;100827.70;102246;1328;61203;-81
2022/01/30 03:48:15;;;;;;;6.10;4.40;;;;;;;20.35;29.81;100817.84;102294;1332;61204;-78
2022/01/30 03:51:26;;;;;;;;;;;;;;;;;;;;;
2022/01/30 03:54:47;;;;;;;6.00;4.50;;;;;;;20.34;29.72;100800.52;101859;1340;74713;-81
2022/01/30 03:58:15;;;;;;;;;;;;;;;;;;;;;
2022/01/30 04:01:10;;;;;;;8.30;5.10;;;;;;;20.34;29.68;100780.73;101664;1345;61248;-82
2022/01/30 04:04:35;;;;;;;6.20;4.40;;;;;;;20.34;29.67;100780.14;101703;1346;73153;-83
2022/01/30 04:10:45;;;;;;;;;;;;;;;;;;;;;
2022/01/30 04:13:55;;;;;;;6.60;4.60;;;;;;;20.35;29.70;100760.82;101691;1345;61197;-85
2022/01/30 04:16:58;;;;;;;6.10;4.20;;;;;;;20.35;29.61;100758.31;101412;1349;74154;-84
2022/01/30 04:19:55;;;;;;;7.00;4.80;;;;;;;20.34;29.65;100760.33;101192;1353;74820;-85
2022/01/30 04:22:40;;;;;;;6.60;4.40;;;;;;;20.34;29.63;100753.17;101320;1351;61374;-85
2022/01/30 04:25:26;;;;;;;6.80;4.70;;;;;;;20.35;29.77;100757.08;101050;1353;61256;-80
2022/01/30 04:28:19;;;;;;;;;;;;;;;;;;;;;
2022/01/30 04:31:49;;;;;;;6.50;4.30;;;;;;;20.35;29.60;100744.95;101607;1346;73657;-87
2022/01/30 04:34:45;;;;;;;8.10;4.70;;;;;;;20.35;29.61;100733.67;101460;1349;61382;-86
2022/01/30 04:38:00;;;;;;;7.80;4.50;;;;;;;20.34;29.62;100736.35;101662;1337;61283;-88
2022/01/30 04:58:22;;;;;;;6.70;4.20;;;;;;;20.33;29.72;100672.30;101585;1345;75815;-85
2022/01/30 05:01:50;;;;;;;6.90;4.20;;;;;;;20.34;29.81;100675.84;101601;1345;61818;-82
2022/01/30 05:04:43;;;;;;;6.20;4.30;;;;;;;20.34;29.73;100678.88;101819;1337;61526;-83
2022/01/30 05:07:39;;;;;;;6.30;4.20;;;;;;;20.33;29.67;100673.70;101875;1337;71921;-83
2022/01/30 05:10:32;;;;;;;;;;;;;;;;;;;;;
2022/01/30 05:13:58;;;;;;;7.00;4.30;;;;;;;20.34;29.71;100664.77;103105;1322;61455;-83
2022/01/30 05:16:55;;;;;;;7.40;4.20;;;;;;;20.34;29.68;100658.30;103210;1322;61241;-83
2022/01/30 05:20:14;;;;;;;6.50;4.10;;;;;;;20.34;29.62;100646.86;103207;1322;72936;-82
2022/01/30 05:22:59;;;;;;;5.80;3.80;;;;;;;20.34;29.78;100631.52;103153;1322;75144;-84
2022/01/30 05:26:01;;;;;;;6.10;4.00;;;;;;;20.34;29.71;100622.90;102709;1327;61541;-82
2022/01/30 05:29:19;;;;;;;6.00;3.90;;;;;;;20.34;29.69;100625.58;102696;1327;61296;-82
2022/01/30 05:32:41;;;;;;;6.70;4.30;;;;;;;20.34;29.78;100626.34;102732;1326;73112;-82
2022/01/30 05:35:57;;;;;;;6.60;3.90;;;;;;;20.34;29.67;100615.62;103341;1320;74826;-82
2022/01/30 05:38:59;;;;;;;;;;;;;;;;;;;;;
2022/01/30 05:42:15;;;;;;;5.80;4.00;;;;;;;20.34;29.69;100596.83;102613;1324;61487;-83
2022/01/30 05:45:34;;;;;;;6.20;3.90;;;;;;;20.34;29.68;100604.49;102035;1336;74168;-84
2022/01/30 05:48:30;;;;;;;6.90;4.00;;;;;;;20.34;29.67;100603.99;102084;1337;74745;-83
2022/01/30 05:51:35;;;;;;;6.30;3.80;;;;;;;20.34;29.66;100605.94;101870;1337;61280;-86
2022/01/30 05:54:33;;;;;;;6.20;3.90;;;;;;;20.34;29.67;100607.50;101725;1343;61382;-84
2022/01/30 05:57:46;;;;;;;5.80;3.70;;;;;;;20.35;29.63;100599.62;101708;1343;74080;-82
2022/01/30 06:01:01;;;;;;;6.30;3.90;;;;;;;20.35;29.75;100591.23;101120;1352;75082;-83
2022/01/30 06:04:14;;;;;;;6.10;3.60;;;;;;;20.35;29.63;100584.79;100872;1355;61588;-82
2022/01/30 06:07:06;;;;;;;7.20;3.70;;;;;;;20.35;29.71;100571.19;100503;1358;61365;-84
2022/01/30 06:10:10;;;;;;;5.60;3.90;;;;;;;20.35;29.78;100561.16;100300;1361;74316;-88
2022/01/30 06:13:06;;;;;;;5.60;3.70;;;;;;;20.35;29.85;100551.31;99757;1367;74858;-82
2022/01/30 06:16:18;;;;;;;5.90;4.00;;;;;;;20.36;29.87;100561.10;99047;1375;62168;-83
2022/01/30 06:19:02;;;;;;;;;;;;;;;;;;;;;
2022/01/30 06:21:54;;;;;;;6.60;4.10;;;;;;;20.37;29.80;100570.19;99288;1369;71947;-83
2022/01/30 06:24:49;;;;;;;5.30;3.40;;;;;;;20.37;29.70;100567.45;99741;1366;77153;-84
2022/01/30 06:27:18;;;;;;;5.70;3.40;;;;;;;20.37;29.83;100566.97;99676;1369;61435;-81
2022/01/30 06:30:31;;;;;;;;;;;;;;;;;;;;;
2022/01/30 06:33:13;;;;;;;5.60;3.50;;;;;;;20.37;29.81;100562.83;99716;1365;73946;-81
2022/01/30 06:36:40;;;;;;;6.90;3.90;;;;;;;20.37;29.92;100566.20;99723;1366;73726;-83
2022/01/30 06:39:46;;;;;;;6.00;4.00;;;;;;;20.37;29.92;100563.36;100708;1356;61227;-81
2022/01/30 06:42:34;;;;;;;6.00;3.80;;;;;;;20.37;29.74;100549.59;100546;1356;61489;-84
2022/01/30 06:45:42;;;;;;;;;;;;;;;;;;;;;
2022/01/30 06:48:57;;;;;;;5.80;3.80;;;;;;;20.38;29.89;100543.11;101467;1348;74972;-81
2022/01/30 06:52:06;;;;;;;5.70;3.70;;;;;;;20.38;29.82;100538.99;101752;1342;62518;-83
2022/01/30 06:54:59;;;;;;;5.90;3.80;;;;;;;20.38;29.86;100541.99;102479;1331;61354;-82
2022/01/30 06:57:35;;;;;;;5.90;3.70;;;;;;;20.38;29.86;100546.10;102598;1328;74042;-84
2022/01/30 07:00:49;;;;;;;6.10;3.30;;;;;;;20.39;29.89;100549.42;102619;1328;73620;-87
2022/01/30 07:03:35;;;;;;;5.30;3.40;;;;;;;20.40;29.88;100554.41;102309;1333;61344;-85
2022/01/30 07:06:09;;;;;;;6.00;3.70;;;;;;;20.40;29.88;100556.90;102131;1334;62816;-83
2022/01/30 07:09:17;;;;;;;6.00;3.70;;;;;;;20.40;29.83;100560.81;102219;1334;71799;-84
2022/01/30 07:12:36;;;;;;;6.20;3.50;;;;;;;20.40;29.87;100565.10;102786;1325;72593;-86
2022/01/30 07:15:48;;;;;;;5.70;3.60;;;;;;;20.40;29.90;100560.44;102540;1330;62074;-85
2022/01/30 07:18:46;;;;;;;6.00;3.60;;;;;;;20.40;29.88;100555.08;102567;1326;61226;-82
2022/01/30 07:21:44;;;;;;;6.60;3.70;;;;;;;20.41;29.80;100546.46;103738;1318;72838;-84
2022/01/30 07:24:41;;;;;;;5.90;3.60;;;;;;;20.41;29.87;100543.23;103807;1319;73637;-83
2022/01/30 07:27:40;;;;;;;;;;;;;;;;;;;;;
2022/01/30 07:30:36;;;;;;;;;;;;;;;20.41;29.87;100537.11;102552;1329;61218;-83
2022/01/30 07:34:03;;;;;;;;;;;;;;;;;;;;;
2022/01/30 07:37:35;;;;;;;5.90;3.40;;;;;;;20.40;29.86;100531.67;102083;1335;75382;-84
2022/01/30 07:40:21;;;;;;;5.60;3.50;;;;;;;20.40;29.87;100523.10;102094;1331;61375;-83
2022/01/30 07:43:35;;;;;;;;;;;;;;;20.41;29.88;100523.22;101933;1340;61673;-82
2022/01/30 07:46:28;;;;;;;;;;;;;;;;;;;;;
2022/01/30 07:49:21;;;;;;;5.10;3.30;;;;;;;20.40;29.93;100519.34;101887;1340;74909;-85
2022/01/30 07:52:29;;;;;;;7.60;3.50;;;;;;;20.41;29.89;100517.52;102100;1331;61372;-83
2022/01/30 07:55:52;;;;;;;;;;;;;;;;;;;;;
2022/01/30 07:58:32;;;;;;;5.40;3.40;;;;;;;20.40;29.86;100507.69;101745;1342;74471;-83
2022/01/30 08:01:37;;;;;;;5.40;3.40;;;;;;;20.41;29.92;100508.72;101762;1342;75141;-83
2022/01/30 08:04:33;;;;;;;5.30;3.60;;;;;;;20.41;29.85;100496.71;101634;1343;61375;-82
2022/01/30 08:07:44;;;;;;;5.50;3.40;;;;;;;20.41;29.88;100498.68;101658;1343;61382;-82
2022/01/30 08:10:46;;;;;;;5.90;3.70;;;;;;;20.42;29.83;100499.17;101542;1348;72103;-84
2022/01/30 08:13:37;;;;;;;6.50;3.60;;;;;;;20.42;29.94;100493.61;100951;1352;76029;-83
2022/01/30 08:16:52;;;;;;;7.20;3.60;;;;;;;20.42;29.89;100488.79;100888;1354;61377;-83
2022/01/30 08:19:50;;;;;;;;;;;;;;;;;;;;;
2022/01/30 08:23:14;;;;;;;6.30;3.80;;;;;;;20.43;29.90;100483.74;101094;1354;73068;-82
2022/01/30 08:26:19;;;;;;;6.60;3.50;;;;;;;20.43;29.93;100479.29;100782;1357;74959;-83
2022/01/30 08:29:14;;;;;;;6.40;4.00;;;;;;;20.43;29.77;100470.50;100259;1361;61582;-82
2022/01/30 08:32:11;;;;;;;7.20;3.70;;;;;;;20.44;29.70;100462.94;100257;1361;61409;-84
2022/01/30 08:35:06;;;;;;;;;;;;;;;;;;;;;
2022/01/30 08:38:10;;;;;;;5.20;3.30;;;;;;;20.44;29.88;100468.13;101148;1354;74778;-81
2022/01/30 08:40:53;;;;;;;6.30;3.50;;;;;;;20.43;29.95;100460.66;101208;1351;61256;-85
2022/01/30 08:44:22;;;;;;;;;;;;;;;;;;;;;
2022/01/30 08:47:20;;;;;;;6.20;3.60;;;;;;;20.42;29.90;100457.83;101676;1340;73794;-82
2022/01/30 08:50:20;;;;;;;;;;;;;;;;;;;;;
2022/01/30 08:53:19;;;;;;;6.50;3.70;;;;;;;20.42;29.83;100446.40;102001;1331;61319;-80
2022/01/30 08:56:28;;;;;;;5.20;3.60;;;;;;;20.42;29.83;100439.10;101868;1339;61326;-82
2022/01/30 08:59:44;;;;;;;6.30;3.70;;;;;;;20.42;29.85;100444.98;102006;1332;72372;-86
2022/01/30 09:02:39;;;;;;;5.50;3.40;;;;;;;20.42;29.84;100441.27;102420;1326;75032;-79
2022/01/30 09:05:38;;;;;;;;;;;;;;;;;;;;;
2022/01/30 09:08:51;;;;;;;6.10;3.70;;;;;;;20.42;29.88;100425.86;103196;1321;61256;-81
2022/01/30 09:12:06;;;;;;;7.30;4.10;;;;;;;20.42;29.92;100418.02;102702;1328;73171;-78
2022/01/30 09:15:02;;;;;;;7.60;3.70;;;;;;;20.42;29.86;100415.15;102703;1325;76023;-85
2022/01/30 09:18:01;;;;;;;8.70;3.90;;;;;;;20.42;29.85;100404.80;102164;1331;61633;-83
2022/01/30 09:21:08;;;;;;;5.40;3.30;;;;;;;20.41;29.83;100386.08;102477;1331;61314;-78
2022/01/30 09:24:18;;;;;;;;;;;;;;;;;;;;;
2022/01/30 09:27:26;;;;;;;6.80;3.90;;;;;;;20.43;29.90;100381.31;101732;1341;76374;-82
2022/01/30 09:30:23;;;;;;;7.10;4.10;;;;;;;20.43;29.91;100371.84;101801;1337;61299;-83
2022/01/30 09:33:38;;;;;;;6.20;3.80;;;;;;;20.43;29.91;100369.67;102213;1331;61299;-86
2022/01/30 09:37:19;;;;;;;4.90;3.20;;;;;;;20.44;29.93;100368.92;102109;1335;72866;-84
2022/01/30 09:40:00;;;;;;;7.80;3.70;;;;;;;20.44;29.85;100366.02;102165;1334;75122;-84
2022/01/30 09:42:48;;;;;;;;;;;;;;;;;;;;;
2022/01/30 09:46:21;;;;;;;6.50;3.40;;;;;;;20.45;29.88;100350.94;101836;1340;61321;-84
2022/01/30 09:49:43;;;;;;;6.60;3.40;;;;;;;20.46;29.87;100333.01;101492;1348;73212;-84
2022/01/30 09:52:57;;;;;;;5.80;3.50;;;;;;;20.47;29.92;100318.63;101339;1351;73671;-80
2022/01/30 09:56:08;;;;;;;5.70;3.40;;;;;;;20.48;29.85;100321.27;101569;1346;61230;-86
2022/01/30 09:59:12;;;;;;;;;;;;;;;;;;;;;
2022/01/30 10:02:01;;;;;;;6.50;3.40;;;;;;;20.47;29.93;100307.74;101530;1346;73907;-78
2022/01/30 10:05:18;;;;;;;5.50;3.50;;;;;;;20.47;29.85;100295.38;101601;1345;75935;-82
2022/01/30 10:08:09;;;;;;;5.40;3.60;;;;;;;20.47;29.86;100288.29;101637;1346;62514;-86
2022/01/30 10:14:22;;;;;;;5.00;3.40;;;;;;;20.47;29.85;100273.45;101667;1345;73791;-82
2022/01/30 10:17:32;;;;;;;4.80;3.50;;;;;;;20.47;29.85;100274.29;101324;1347;73485;-81
2022/01/30 10:20:41;;;;;;;7.80;3.40;;;;;;;20.47;29.88;100272.56;101496;1347;61337;-88
2022/01/30 10:23:50;;;;;;;5.50;3.60;;;;;;;20.47;29.85;100276.09;101508;1349;61421;-82
2022/01/30 10:26:55;;;;;;;;;;;;;;;;;;;;;
2022/01/30 10:29:36;;;;;;;5.60;3.20;;;;;;;20.47;29.87;100257.32;101551;1344;76004;-83
2022/01/30 10:32:52;;;;;;;5.60;3.40;;;;;;;20.47;29.86;100246.06;101702;1344;61645;-83
2022/01/30 10:35:36;;;;;;;5.20;3.60;;;;;;;20.47;29.86;100247.11;101706;1344;61775;-86
2022/01/30 10:38:53;;;;;;;5.60;3.50;;;;;;;20.48;29.81;100238.52;101717;1343;73964;-84
2022/01/30 10:41:52;;;;;;;6.90;3.30;;;;;;;20.48;29.82;100239.41;101683;1344;75259;-80
2022/01/30 10:45:04;;;;;;;5.80;3.30;;;;;;;20.48;29.84;100229.59;101733;1341;61218;-84
2022/01/30 10:48:03;;;;;;;6.00;3.40;;;;;;;20.48;29.83;100225.10;101523;1350;61380;-89
2022/01/30 10:54:18;;;;;;;;;;;;;;;;;;;;;
2022/01/30 10:57:02;;;;;;;5.20;3.40;;;;;;;20.48;29.82;100203.95;101858;1340;61673;-84
2022/01/30 11:00:11;;;;;;;6.20;3.50;;;;;;;20.49;29.87;100190.18;101836;1340;61235;-84
2022/01/30 11:03:18;;;;;;;6.20;3.60;;;;;;;20.49;29.91;100188.73;101915;1337;74024;-82
2022/01/30 11:06:39;;;;;;;5.60;3.30;;;;;;;20.49;29.94;100193.40;101853;1336;75438;-85
2022/01/30 11:09:39;;;;;;;6.10;3.50;;;;;;;20.49;29.93;100180.98;101775;1342;61658;-80
2022/01/30 11:12:36;;;;;;;7.50;3.80;;;;;;;20.50;29.85;100179.17;101730;1343;61391;-83
2022/01/30 11:18:17;;;;;;;6.60;3.40;;;;;;;20.50;29.86;100160.58;101526;1343;75904;-83
2022/01/30 11:21:14;;;;;;;6.20;3.50;;;;;;;20.50;29.91;100146.08;101563;1348;61375;-85
2022/01/30 11:24:07;;;;;;;5.80;3.40;;;;;;;20.50;29.87;100132.50;101570;1345;61229;-87
2022/01/30 11:27:11;;;;;;;6.70;3.40;;;;;;;20.50;29.87;100126.75;101600;1346;73963;-82
2022/01/30 11:30:06;;;;;;;7.00;3.40;;;;;;;20.51;29.86;100117.64;101450;1351;74871;-80
2022/01/30 11:33:05;;;;;;;;;;;;;;;;;;;;;
2022/01/30 11:36:21;;;;;;;6.80;3.50;;;;;;;20.51;29.91;100094.55;101361;1351;61243;-84
2022/01/30 11:39:07;;;;;;;6.30;3.30;;;;;;;20.51;29.83;100084.20;100377;1358;73228;-82
2022/01/30 11:42:28;;;;;;;5.80;3.50;;;;;;;20.51;29.87;100079.70;100482;1358;74794;-88
2022/01/30 11:45:58;;;;;;;4.60;3.10;;;;;;;20.51;29.91;100065.79;101303;1346;61372;-83
2022/01/30 11:48:39;;;;;;;6.00;3.60;;;;;;;20.51;29.89;100067.01;101070;1354;61252;-82
2022/01/30 11:51:49;;;;;;;;;;;;;;;;;;;;;
2022/01/30 11:55:03;;;;;;;;;;;;;;;;;;;;;
2022/01/30 11:58:13;;;;;;;5.30;3.30;;;;;;;20.52;29.91;100052.45;100905;1354;61506;-82
2022/01/30 12:01:34;;;;;;;5.60;3.00;;;;;;;20.51;29.95;100045.34;100352;1361;63193;-82
2022/01/30 12:04:40;;;;;;;5.80;3.40;;;;;;;20.52;30.00;100048.88;100427;1358;74108;-84
2022/01/30 12:08:02;;;;;;;5.60;3.50;;;;;;;20.53;29.99;100045.80;100623;1354;77674;-82
2022/01/30 12:11:21;;;;;;;;;;;;;;;;;;;;;
2022/01/30 12:14:29;;;;;;;6.10;3.30;;;;;;;20.52;29.95;100028.11;100646;1356;61282;-80
2022/01/30 12:17:37;;;;;;;;;;;;;;;;;;;;;
2022/01/30 12:20:30;;;;;;;6.60;3.20;;;;;;;20.53;30.02;100020.00;100704;1358;75825;-81
2022/01/30 12:23:45;;;;;;;5.80;3.40;;;;;;;20.54;29.89;100020.28;100286;1361;62876;-82
2022/01/30 12:26:52;;;;;;;5.80;3.20;;;;;;;20.54;30.09;100016.02;99879;1367;61288;-84
2022/01/30 12:29:56;;;;;;;5.60;3.40;;;;;;;20.54;29.95;100008.98;99939;1367;72902;-86
2022/01/30 12:32:53;;;;;;;5.40;3.00;;;;;;;20.54;30.01;100008.29;100159;1361;75000;-82
2022/01/30 12:36:04;;;;;;;5.60;3.10;;;;;;;20.54;29.86;99995.80;100095;1361;61241;-82
2022/01/30 12:39:23;;;;;;;7.80;3.30;;;;;;;20.54;29.78;99990.59;100791;1354;61576;-81
2022/01/30 12:42:01;;;;;;;4.90;3.00;;;;;;;20.54;29.85;99982.35;101270;1348;74069;-78
2022/01/30 12:45:16;;;;;;;5.80;3.30;;;;;;;20.55;29.94;99985.17;101517;1348;72550;-81
2022/01/30 12:48:12;;;;;;;6.20;3.20;;;;;;;20.55;29.88;99986.60;101320;1348;61783;-83
2022/01/30 12:51:02;;;;;;;;;;;;;;;;;;;;;
2022/01/30 12:54:16;;;;;;;5.60;3.30;;;;;;;20.55;30.02;99971.01;101454;1348;70676;-81
2022/01/30 12:57:14;;;;;;;5.70;3.30;;;;;;;20.56;30.01;99962.78;101547;1342;74949;-83
2022/01/30 13:00:17;;;;;;;5.80;3.10;;;;;;;20.56;29.82;99960.58;101406;1343;61281;-80
2022/01/30 13:03:18;;;;;;;5.50;3.00;;;;;;;20.56;29.95;99947.37;101730;1329;61360;-84
2022/01/30 13:06:07;;;;;;;5.40;3.30;;;;;;;20.57;29.92;99947.85;102179;1331;71633;-85
2022/01/30 13:09:42;;;;;;;5.20;2.80;;;;;;;20.56;29.88;99935.77;101617;1345;73083;-84
2022/01/30 13:12:33;;;;;;;4.90;3.20;;;;;;;20.56;29.94;99936.61;101511;1348;61239;-86
2022/01/30 13:16:08;;;;;;;6.20;3.30;;;;;;;20.57;29.90;99930.80;101513;1348;61332;-83
2022/01/30 13:19:02;;;;;;;6.00;3.40;;;;;;;20.57;29.89;99924.36;101519;1347;72926;-84
2022/01/30 13:22:30;;;;;;;5.00;3.20;;;;;;;20.58;29.86;99932.39;101524;1348;73826;-83
2022/01/30 13:25:18;;;;;;;4.60;3.00;;;;;;;20.58;29.90;99935.73;101585;1343;61272;-83
2022/01/30 13:28:02;;;;;;;5.00;3.20;;;;;;;20.59;29.89;99935.34;101625;1346;61448;-89
2022/01/30 13:31:08;;;;;;;5.10;2.70;;;;;;;20.59;29.87;99936.22;101410;1351;71581;-84
2022/01/30 13:34:01;;;;;;;;;;;;;;;20.59;29.88;99933.16;101420;1351;74885;-83
2022/01/30 13:37:08;;;;;;;5.00;3.20;;;;;;;20.58;29.89;99937.36;101493;1348;61867;-86
2022/01/30 13:48:55;;;;;;;4.30;2.80;;;;;;;20.59;29.94;99952.12;101758;1341;61221;-89
2022/01/30 13:51:38;;;;;;;4.90;2.80;;;;;;;20.59;29.82;99951.43;101763;1341;61212;-85
2022/01/30 13:54:45;;;;;;;8.70;2.80;;;;;;;20.59;29.86;99948.17;101752;1342;71555;-84
2022/01/30 13:57:52;;;;;;;5.10;3.00;;;;;;;20.59;29.90;99946.18;101756;1341;75125;-89
2022/01/30 14:00:41;;;;;;;4.60;2.60;;;;;;;20.59;29.72;99936.41;101746;1342;62325;-83
2022/01/30 14:03:27;;;;;;;4.10;2.60;;;;;;;20.60;29.85;99939.36;101637;1345;61510;-88
2022/01/30 14:06:49;;;;;;;6.00;2.80;;;;;;;20.60;29.80;99941.11;101831;1340;72803;-83
2022/01/30 14:09:47;;;;;;;;;;;;;;;;;;;;;
2022/01/30 14:12:39;;;;;;;5.00;3.20;;;;;;;20.60;29.76;99931.09;101736;1343;61494;-83
2022/01/30 14:16:16;;;;;;;5.40;2.70;;;;;;;20.61;29.82;99924.46;101748;1343;61353;-83
2022/01/30 14:19:15;;;;;;;4.40;2.60;;;;;;;20.61;29.83;99917.10;101779;1343;72817;-87
2022/01/30 14:22:36;;;;;;;4.40;2.60;;;;;;;20.62;29.71;99917.75;101723;1340;74112;-84
2022/01/30 14:25:18;;;;;;;5.30;2.70;;;;;;;20.62;29.80;99916.11;101925;1337;61526;-83
2022/01/30 14:28:17;;;;;;;4.80;2.80;;;;;;;20.63;29.87;99914.25;101909;1337;61336;-82
2022/01/30 14:31:23;;;;;;;4.20;2.40;;;;;;;20.63;29.87;99921.57;101930;1337;73816;-85
2022/01/30 14:34:29;;;;;;;4.80;2.70;;;;;;;20.64;29.89;99920.59;102252;1331;75104;-84
2022/01/30 14:37:36;;;;;;;;;;;;;;;;;;;;;
2022/01/30 14:40:27;;;;;;;4.20;2.70;;;;;;;20.65;29.85;99922.50;102344;1328;61362;-84
2022/01/30 14:43:20;;;;;;;5.60;3.00;;;;;;;20.66;29.80;99919.05;102561;1328;72914;-82
2022/01/30 14:46:16;;;;;;;5.00;2.80;;;;;;;20.66;29.87;99918.52;102327;1328;74958;-82
2022/01/30 14:49:34;;;;;;;4.30;2.70;;;;;;;20.67;29.84;99918.80;102536;1331;61638;-82
2022/01/30 14:52:24;;;;;;;5.80;2.70;;;;;;;20.66;29.83;99919.70;101915;1337;61826;-84
2022/01/30 14:55:30;;;;;;;5.60;2.70;;;;;;;20.67;29.84;99924.99;101865;1337;72861;-79
2022/01/30 14:58:22;;;;;;;4.60;2.70;;;;;;;20.67;29.91;99925.39;101784;1340;76043;-87
2022/01/30 15:01:10;;;;;;;4.20;2.80;;;;;;;20.68;29.90;99921.21;101924;1337;61322;-82
2022/01/30 15:03:59;;;;;;;4.20;2.40;;;;;;;20.68;29.88;99915.62;101885;1337;60636;-81
2022/01/30 15:06:34;;;;;;;3.90;2.30;;;;;;;20.68;29.87;99910.27;101816;1341;72710;-87
2022/01/30 15:09:34;;;;;;;;;;;;;;;;;;;;;
2022/01/30 15:12:23;;;;;;;4.40;2.60;;;;;;;20.69;29.90;99908.44;101830;1342;61352;-89
2022/01/30 15:15:15;;;;;;;3.60;2.20;;;;;;;20.69;29.87;99906.80;101739;1342;61433;-82
2022/01/30 15:18:13;;;;;;;4.80;2.70;;;;;;;20.69;29.93;99891.98;101835;1340;74111;-82
2022/01/30 15:21:01;;;;;;;4.80;2.80;;;;;;;20.69;29.91;99891.07;101908;1340;74779;-85
2022/01/30 15:24:08;;;;;;;4.20;2.30;;;;;;;20.69;29.89;99892.68;102059;1335;61736;-80
2022/01/30 15:26:44;;;;;;;;;;;;;;;20.69;29.90;99888.37;102014;1337;61336;-83
2022/01/30 15:29:50;;;;;;;5.20;2.50;;;;;;;20.68;29.96;99896.35;101852;1337;71551;-84
2022/01/30 15:35:54;;;;;;;4.60;2.50;;;;;;;20.69;29.94;99902.36;101654;1345;60936;-83
2022/01/30 15:38:40;;;;;;;6.00;2.50;;;;;;;20.69;29.96;99911.84;101560;1348;61362;-83
2022/01/30 15:41:37;;;;;;;3.60;2.10;;;;;;;20.69;29.90;99911.63;101563;1348;72901;-80
2022/01/30 15:51:35;;;;;;;3.70;2.30;;;;;;;20.68;29.94;99915.08;101063;1354;61225;-86
2022/01/30 15:54:26;;;;;;;4.40;2.60;;;;;;;20.70;29.99;99906.79;101358;1351;72823;-88
2022/01/30 15:57:23;;;;;;;;;;;;;;;;;;;;;
2022/01/30 16:00:27;;;;;;;3.90;2.40;;;;;;;20.69;29.99;99912.88;101065;1353;61428;-79
2022/01/30 16:03:43;;;;;;;;;;;;;;;;;;;;;
2022/01/30 16:06:42;;;;;;;6.10;2.40;;;;;;;20.68;29.95;99908.48;100675;1355;72113;-82
2022/01/30 16:09:42;;;;;;;3.70;2.30;;;;;;;20.68;29.98;99911.49;100670;1357;76009;-86
2022/01/30 16:15:38;;;;;;;4.10;2.30;;;;;;;20.69;29.99;99913.45;100836;1354;61256;-82
2022/01/30 16:18:50;;;;;;;6.30;2.30;;;;;;;20.68;30.02;99917.80;101242;1352;73958;-84
2022/01/30 16:21:35;;;;;;;;;;;;;;;;;;;;;
2022/01/30 16:24:48;;;;;;;5.30;2.80;;;;;;;20.68;29.92;99911.53;101529;1346;61350;-83
2022/01/30 16:27:51;;;;;;;3.70;2.30;;;;;;;20.69;29.93;99906.84;101622;1346;61256;-86
2022/01/30 16:30:42;;;;;;;4.10;2.30;;;;;;;20.68;29.99;99900.60;101690;1345;72690;-80
2022/01/30 16:33:48;;;;;;;4.90;2.70;;;;;;;20.69;30.07;99898.26;101697;1345;74880;-83
2022/01/30 16:36:37;;;;;;;;;;;;;;;20.68;29.98;99893.13;101732;1345;61261;-82
2022/01/30 16:40:06;;;;;;;4.60;2.30;;;;;;;20.66;30.06;99894.02;101718;1345;61331;-83
2022/01/30 16:43:10;;;;;;;5.10;2.60;;;;;;;20.66;30.05;99894.33;101300;1348;72987;-83